createdAt,value
2018-11-07T00:00:15.767Z,80.31
2018-11-07T00:02:44.133Z,80.55
2018-11-07T00:05:13.011Z,80.35
2018-11-07T00:07:41.406Z,79.97
2018-11-07T00:10:09.093Z,80.15
2018-11-07T00:12:37.424Z,80.53
2018-11-07T00:15:05.749Z,80.41
2018-11-07T00:17:34.658Z,80.37
2018-11-07T00:20:02.992Z,80.56
2018-11-07T00:22:30.743Z,80.59
2018-11-07T00:24:59.063Z,80.48
2018-11-07T00:27:27.966Z,80.37
2018-11-07T00:29:55.738Z,80.58
2018-11-07T00:32:24.061Z,80.81
2018-11-07T00:34:52.415Z,80.87
2018-11-07T00:37:21.334Z,81.03
2018-11-07T00:39:50.075Z,80.86
2018-11-07T00:42:17.875Z,80.81
2018-11-07T00:44:46.165Z,80.87
2018-11-07T00:47:14.504Z,80.69
2018-11-07T00:49:43.415Z,80.79
2018-11-07T00:52:11.747Z,81.03
2018-11-07T00:54:39.484Z,81.26
2018-11-07T00:57:07.811Z,81.53
2018-11-07T00:59:36.149Z,81.42
2018-11-07T01:02:05.043Z,81.56
2018-11-07T01:04:33.371Z,81.66
2018-11-07T01:07:01.133Z,81.67
2018-11-07T01:09:30.147Z,81.81
2018-11-07T01:11:57.788Z,81.89
2018-11-07T01:14:26.686Z,81.99
2018-11-07T01:16:55.014Z,81.63
2018-11-07T01:19:23.334Z,81.23
2018-11-07T01:21:51.090Z,81.00
2018-11-07T01:24:19.984Z,80.73
2018-11-07T01:26:48.312Z,80.90
2018-11-07T01:29:16.630Z,80.87
2018-11-07T01:31:44.934Z,81.04
2018-11-07T01:34:13.199Z,81.19
2018-11-07T01:36:42.130Z,81.44
2018-11-07T01:39:10.488Z,81.61
2018-11-07T01:41:38.821Z,81.61
2018-11-07T01:44:07.139Z,81.46
2018-11-07T01:46:35.460Z,81.46
2018-11-07T01:49:03.204Z,81.62
2018-11-07T01:51:32.114Z,81.86
2018-11-07T01:53:59.876Z,81.85
2018-11-07T01:56:28.208Z,82.19
2018-11-07T01:58:56.529Z,81.88
2018-11-07T02:01:25.432Z,81.87
2018-11-07T02:03:53.172Z,81.82
2018-11-07T02:06:22.082Z,82.05
2018-11-07T02:08:49.826Z,81.86
2018-11-07T02:11:18.735Z,81.96
2018-11-07T02:13:47.819Z,81.97
2018-11-07T02:16:16.139Z,82.25
2018-11-07T02:18:43.895Z,82.64
2018-11-07T02:21:12.798Z,82.56
2018-11-07T02:23:40.552Z,82.56
2018-11-07T02:26:09.502Z,82.37
2018-11-07T02:28:37.780Z,82.43
2018-11-07T02:31:06.098Z,82.48
2018-11-07T02:33:34.677Z,82.57
2018-11-07T02:36:02.409Z,82.77
2018-11-07T02:38:31.331Z,82.55
2018-11-07T02:40:59.679Z,82.59
2018-11-07T02:43:28.001Z,82.44
2018-11-07T02:45:56.322Z,82.67
2018-11-07T02:48:24.658Z,83.46
2018-11-07T02:50:52.398Z,83.24
2018-11-07T02:53:20.740Z,83.09
2018-11-07T02:55:49.629Z,83.05
2018-11-07T02:58:17.431Z,82.97
2018-11-07T03:00:45.710Z,82.65
2018-11-07T03:03:14.607Z,82.60
2018-11-07T03:05:42.367Z,82.69
2018-11-07T03:08:11.270Z,82.47
2018-11-07T03:10:39.622Z,82.67
2018-11-07T03:13:07.344Z,82.54
2018-11-07T03:15:35.662Z,82.54
2018-11-07T03:18:03.981Z,82.49
2018-11-07T03:20:33.108Z,82.69
2018-11-07T03:23:01.211Z,82.65
2018-11-07T03:25:29.539Z,82.76
2018-11-07T03:27:57.858Z,82.81
2018-11-07T03:30:26.189Z,82.98
2018-11-07T03:32:54.505Z,82.87
2018-11-07T03:35:22.854Z,82.80
2018-11-07T03:37:50.587Z,82.77
2018-11-07T03:40:18.912Z,82.90
2018-11-07T03:42:47.846Z,82.92
2018-11-07T03:45:15.607Z,82.89
2018-11-07T03:47:43.929Z,82.91
2018-11-07T03:50:12.253Z,82.90
2018-11-07T03:52:40.572Z,82.89
2018-11-07T03:55:08.897Z,83.00
2018-11-07T03:57:37.806Z,83.27
2018-11-07T04:00:06.139Z,83.52
2018-11-07T04:02:34.463Z,83.41
2018-11-07T04:05:02.214Z,83.54
2018-11-07T04:07:30.544Z,83.55
2018-11-07T04:09:59.446Z,83.28
2018-11-07T04:12:27.766Z,83.29
2018-11-07T04:14:55.507Z,83.60
2018-11-07T04:17:24.706Z,83.59
2018-11-07T04:19:53.028Z,83.78
2018-11-07T04:22:21.353Z,83.63
2018-11-07T04:24:49.680Z,83.70
2018-11-07T04:27:17.430Z,83.72
2018-11-07T04:29:46.335Z,83.95
2018-11-07T04:32:14.883Z,83.97
2018-11-07T04:34:43.209Z,83.89
2018-11-07T04:37:10.952Z,83.57
2018-11-07T04:39:39.861Z,83.72
2018-11-07T04:42:07.594Z,83.85
2018-11-07T04:44:36.526Z,84.11
2018-11-07T04:47:04.259Z,84.10
2018-11-07T04:49:32.598Z,84.13
2018-11-07T04:52:00.924Z,84.55
2018-11-07T04:54:29.826Z,85.06
2018-11-07T04:56:58.594Z,85.34
2018-11-07T04:59:26.922Z,85.62
2018-11-07T05:01:55.823Z,85.92
2018-11-07T05:04:23.594Z,86.22
2018-11-07T05:06:51.919Z,86.30
2018-11-07T05:09:20.815Z,86.43
2018-11-07T05:11:48.556Z,86.53
2018-11-07T05:14:17.467Z,86.58
2018-11-07T05:16:45.205Z,86.77
2018-11-07T05:19:14.169Z,86.87
2018-11-07T05:21:41.930Z,87.11
2018-11-07T05:24:10.256Z,87.04
2018-11-07T05:26:39.172Z,87.11
2018-11-07T05:29:06.923Z,86.91
2018-11-07T05:31:35.842Z,86.48
2018-11-07T05:34:04.176Z,86.32
2018-11-07T05:36:32.615Z,86.19
2018-11-07T05:39:00.952Z,85.98
2018-11-07T05:41:29.281Z,85.70
2018-11-07T05:43:57.619Z,85.49
2018-11-07T05:46:25.385Z,85.24
2018-11-07T05:48:54.639Z,85.18
2018-11-07T05:51:22.910Z,84.85
2018-11-07T05:53:50.779Z,84.92
2018-11-07T05:56:19.002Z,84.90
2018-11-07T05:58:47.330Z,84.87
2018-11-07T06:01:15.656Z,85.03
2018-11-07T06:03:44.574Z,85.38
2018-11-07T06:06:12.906Z,86.27
2018-11-07T06:08:41.253Z,86.59
2018-11-07T06:11:09.580Z,86.83
2018-11-07T06:13:37.384Z,86.78
2018-11-07T06:16:06.267Z,86.82
2018-11-07T06:18:34.557Z,86.71
2018-11-07T06:21:03.249Z,86.67
2018-11-07T06:23:31.578Z,86.54
2018-11-07T06:25:59.332Z,86.50
2018-11-07T06:28:28.248Z,86.37
2018-11-07T06:30:56.566Z,86.31
2018-11-07T06:33:24.889Z,86.29
2018-11-07T06:35:53.235Z,86.18
2018-11-07T06:38:21.582Z,86.19
2018-11-07T06:40:49.942Z,86.22
2018-11-07T06:43:18.260Z,86.23
2018-11-07T06:45:46.926Z,86.09
2018-11-07T06:48:15.086Z,85.91
2018-11-07T06:50:43.022Z,85.98
2018-11-07T06:53:11.919Z,85.97
2018-11-07T06:55:39.681Z,85.79
2018-11-07T06:58:07.987Z,85.74
2018-11-07T07:00:36.321Z,85.72
2018-11-07T07:03:04.644Z,85.66
2018-11-07T07:05:33.052Z,85.68
2018-11-07T07:08:01.883Z,85.58
2018-11-07T07:10:30.204Z,85.49
2018-11-07T07:12:58.542Z,85.41
2018-11-07T07:15:26.852Z,85.33
2018-11-07T07:17:55.191Z,85.23
2018-11-07T07:20:23.490Z,85.05
2018-11-07T07:22:51.809Z,84.81
2018-11-07T07:25:20.131Z,84.63
2018-11-07T07:27:47.883Z,84.40
2018-11-07T07:30:17.080Z,84.39
2018-11-07T07:32:45.164Z,84.20
2018-11-07T07:35:13.502Z,83.98
2018-11-07T07:37:41.820Z,83.87
2018-11-07T07:40:09.561Z,83.74
2018-11-07T07:42:38.475Z,83.69
2018-11-07T07:45:06.207Z,83.43
2018-11-07T07:47:34.550Z,82.99
2018-11-07T07:50:03.510Z,82.57
2018-11-07T07:52:31.261Z,82.15
2018-11-07T07:55:00.176Z,81.78
2018-11-07T07:57:28.508Z,81.54
2018-11-07T07:59:56.249Z,81.33
2018-11-07T08:02:24.578Z,81.13
2018-11-07T08:04:53.476Z,80.78
2018-11-07T08:07:21.223Z,80.50
2018-11-07T08:09:49.555Z,80.24
2018-11-07T08:12:18.460Z,80.00
2018-11-07T08:14:46.248Z,79.67
2018-11-07T08:17:15.157Z,79.38
2018-11-07T08:19:43.487Z,78.99
2018-11-07T08:22:11.243Z,78.69
2018-11-07T08:24:39.562Z,78.37
2018-11-07T08:27:08.386Z,78.01
2018-11-07T08:29:36.801Z,78.04
2018-11-07T08:32:05.151Z,77.87
2018-11-07T08:34:33.468Z,77.66
2018-11-07T08:37:01.222Z,77.36
2018-11-07T08:39:29.548Z,77.20
2018-11-07T08:41:57.876Z,77.08
2018-11-07T08:44:26.209Z,76.21
2018-11-07T08:46:55.663Z,75.75
2018-11-07T08:49:23.747Z,75.53
2018-11-07T08:51:52.099Z,75.28
2018-11-07T08:54:20.436Z,75.39
2018-11-07T08:56:48.763Z,75.24
2018-11-07T08:59:17.090Z,74.91
2018-11-07T09:01:45.424Z,74.24
2018-11-07T09:04:13.167Z,74.12
2018-11-07T09:06:41.497Z,74.14
2018-11-07T09:09:09.859Z,73.97
2018-11-07T09:11:38.457Z,73.63
2018-11-07T09:14:06.780Z,73.24
2018-11-07T09:16:35.105Z,73.13
2018-11-07T09:19:03.434Z,72.92
2018-11-07T09:21:32.344Z,72.69
2018-11-07T09:24:00.674Z,72.72
2018-11-07T09:26:29.141Z,72.60
2018-11-07T09:28:56.886Z,72.22
2018-11-07T09:31:25.811Z,72.03
2018-11-07T09:33:54.115Z,72.18
2018-11-07T09:36:22.439Z,71.66
2018-11-07T09:38:50.188Z,71.53
2018-11-07T09:41:19.100Z,71.59
2018-11-07T09:43:47.423Z,71.18
2018-11-07T09:46:15.748Z,71.15
2018-11-07T09:48:44.083Z,71.17
2018-11-07T09:51:12.415Z,70.80
2018-11-07T09:53:40.787Z,70.84
2018-11-07T09:56:08.508Z,70.26
2018-11-07T09:58:37.417Z,70.17
2018-11-07T10:01:05.757Z,69.62
2018-11-07T10:03:33.496Z,69.43
2018-11-07T10:06:01.817Z,69.12
2018-11-07T10:08:30.727Z,68.99
2018-11-07T10:10:58.473Z,68.89
2018-11-07T10:13:27.371Z,68.60
2018-11-07T10:15:55.123Z,68.27
2018-11-07T10:18:23.735Z,68.02
2018-11-07T10:20:52.352Z,68.06
2018-11-07T10:23:20.697Z,68.22
2018-11-07T10:25:49.025Z,68.28
2018-11-07T10:28:16.881Z,67.92
2018-11-07T10:30:45.112Z,67.84
2018-11-07T10:33:13.435Z,67.95
2018-11-07T10:35:41.764Z,68.13
2018-11-07T10:38:10.171Z,67.91
2018-11-07T10:40:38.426Z,67.96
2018-11-07T10:43:07.333Z,67.78
2018-11-07T10:45:35.074Z,67.61
2018-11-07T10:48:03.981Z,67.22
2018-11-07T10:50:32.311Z,66.43
2018-11-07T10:53:00.638Z,66.02
2018-11-07T10:55:28.997Z,65.31
2018-11-07T10:57:57.340Z,64.54
2018-11-07T11:00:25.668Z,63.76
2018-11-07T11:02:53.992Z,63.91
2018-11-07T11:05:21.761Z,63.95
2018-11-07T11:07:50.655Z,64.09
2018-11-07T11:10:18.981Z,63.52
2018-11-07T11:12:47.314Z,63.58
2018-11-07T11:15:15.079Z,64.21
2018-11-07T11:17:43.405Z,65.00
2018-11-07T11:20:12.309Z,65.52
2018-11-07T11:22:40.643Z,64.65
2018-11-07T11:25:08.393Z,64.01
2018-11-07T11:27:36.835Z,63.74
2018-11-07T11:30:05.629Z,63.71
2018-11-07T11:32:33.371Z,64.08
2018-11-07T11:35:01.847Z,63.61
2018-11-07T11:37:30.027Z,63.46
2018-11-07T11:39:58.362Z,63.39
2018-11-07T11:42:27.283Z,63.31
2018-11-07T11:44:55.025Z,63.38
2018-11-07T11:47:23.352Z,63.60
2018-11-07T11:49:51.694Z,62.85
2018-11-07T11:52:20.029Z,62.95
2018-11-07T11:54:48.373Z,62.67
2018-11-07T11:57:17.299Z,62.13
2018-11-07T11:59:45.847Z,61.93
2018-11-07T12:02:13.454Z,61.89
2018-11-07T12:04:41.719Z,61.63
2018-11-07T12:07:10.626Z,61.64
2018-11-07T12:09:38.374Z,61.72
2018-11-07T12:12:07.300Z,61.91
2018-11-07T12:14:35.028Z,60.97
2018-11-07T12:17:03.353Z,60.36
2018-11-07T12:19:32.248Z,60.34
2018-11-07T12:22:01.163Z,60.15
2018-11-07T12:24:29.494Z,59.97
2018-11-07T12:26:57.899Z,60.21
2018-11-07T12:29:25.582Z,59.90
2018-11-07T12:31:54.541Z,59.54
2018-11-07T12:34:22.290Z,59.00
2018-11-07T12:36:51.197Z,58.73
2018-11-07T12:39:19.560Z,58.96
2018-11-07T12:41:47.304Z,58.55
2018-11-07T12:44:16.215Z,57.95
2018-11-07T12:46:44.836Z,58.17
2018-11-07T12:49:13.170Z,58.42
2018-11-07T12:51:41.496Z,58.21
2018-11-07T12:54:09.828Z,58.34
2018-11-07T12:56:39.235Z,58.00
2018-11-07T12:59:07.590Z,58.02
2018-11-07T13:01:35.919Z,58.20
2018-11-07T13:04:04.245Z,58.23
2018-11-07T13:06:31.987Z,57.89
2018-11-07T13:09:00.333Z,57.69
2018-11-07T13:11:28.697Z,57.77
2018-11-07T13:13:57.584Z,57.83
2018-11-07T13:16:25.971Z,57.84
2018-11-07T13:18:54.255Z,57.65
2018-11-07T13:21:22.002Z,57.55
2018-11-07T13:23:50.909Z,57.36
2018-11-07T13:26:19.244Z,57.58
2018-11-07T13:28:47.635Z,57.78
2018-11-07T13:31:15.907Z,57.94
2018-11-07T13:33:43.660Z,57.95
2018-11-07T13:36:12.569Z,58.04
2018-11-07T13:38:41.209Z,57.88
2018-11-07T13:41:09.302Z,58.25
2018-11-07T13:43:37.561Z,58.64
2018-11-07T13:46:05.359Z,58.87
2018-11-07T13:48:33.646Z,59.07
2018-11-07T13:51:01.981Z,58.92
2018-11-07T13:53:30.885Z,59.06
2018-11-07T13:55:58.634Z,59.24
2018-11-07T13:58:26.972Z,59.25
2018-11-07T14:00:55.932Z,59.44
2018-11-07T14:03:24.267Z,59.22
2018-11-07T14:05:52.645Z,59.16
2018-11-07T14:08:20.928Z,59.56
2018-11-07T14:10:49.252Z,59.87
2018-11-07T14:13:17.602Z,60.16
2018-11-07T14:15:45.808Z,60.40
2018-11-07T14:18:14.263Z,60.86
2018-11-07T14:20:42.614Z,61.17
2018-11-07T14:23:10.349Z,61.31
2018-11-07T14:25:39.267Z,61.44
2018-11-07T14:28:07.811Z,62.11
2018-11-07T14:30:35.349Z,63.00
2018-11-07T14:33:04.268Z,63.76
2018-11-07T14:35:32.008Z,64.37
2018-11-07T14:38:00.347Z,64.83
2018-11-07T14:40:28.686Z,65.43
2018-11-07T14:42:57.593Z,65.96
2018-11-07T14:45:25.337Z,66.46
2018-11-07T14:47:54.321Z,67.09
2018-11-07T14:50:21.997Z,67.51
2018-11-07T14:52:50.906Z,67.73
2018-11-07T14:55:19.234Z,67.93
2018-11-07T14:57:47.558Z,68.40
2018-11-07T15:00:15.890Z,68.71
2018-11-07T15:02:44.335Z,69.11
2018-11-07T15:05:11.986Z,69.56
2018-11-07T15:07:40.931Z,69.97
2018-11-07T15:10:09.289Z,70.37
2018-11-07T15:12:37.629Z,70.72
2018-11-07T15:15:06.026Z,71.15
2018-11-07T15:17:34.357Z,71.79
2018-11-07T15:20:02.695Z,72.67
2018-11-07T15:22:31.026Z,73.10
2018-11-07T15:24:59.533Z,73.45
2018-11-07T15:27:27.194Z,73.75
2018-11-07T15:29:56.109Z,74.23
2018-11-07T15:32:23.875Z,74.78
2018-11-07T15:34:52.216Z,75.01
2018-11-07T15:37:20.572Z,75.16
2018-11-07T15:39:48.900Z,75.43
2018-11-07T15:42:17.812Z,75.26
2018-11-07T15:44:46.137Z,75.08
2018-11-07T15:47:13.885Z,75.06
2018-11-07T15:49:42.793Z,75.06
2018-11-07T15:52:11.132Z,75.09
2018-11-07T15:54:39.459Z,75.13
2018-11-07T15:57:07.789Z,75.18
2018-11-07T15:59:36.114Z,75.29
2018-11-07T16:02:03.860Z,75.40
2018-11-07T16:04:32.219Z,75.47
2018-11-07T16:07:01.130Z,75.58
2018-11-07T16:09:29.460Z,75.52
2018-11-07T16:11:57.823Z,75.43
2018-11-07T16:14:26.168Z,75.35
2018-11-07T16:19:22.838Z,75.28
2018-11-07T16:21:51.168Z,75.29
2018-11-07T16:24:19.496Z,75.32
2018-11-07T16:26:47.835Z,75.32
2018-11-07T16:29:16.161Z,75.42
2018-11-07T16:31:43.940Z,75.41
2018-11-07T16:34:12.817Z,75.51
2018-11-07T16:36:40.595Z,75.58
2018-11-07T16:39:09.527Z,75.69
2018-11-07T16:41:38.138Z,75.80
2018-11-07T16:44:05.732Z,75.90
2018-11-07T16:46:34.645Z,76.05
2018-11-07T16:49:02.416Z,76.13
2018-11-07T16:51:31.336Z,76.25
2018-11-07T16:53:59.674Z,76.43
2018-11-07T16:56:27.429Z,76.49
2018-11-07T16:58:56.380Z,76.63
2018-11-07T17:01:24.686Z,76.70
2018-11-07T17:03:53.024Z,76.83
2018-11-07T17:06:21.380Z,77.00
2018-11-07T17:08:49.725Z,77.18
2018-11-07T17:11:18.060Z,77.15
2018-11-07T17:13:46.401Z,77.25
2018-11-07T17:16:14.735Z,77.33
2018-11-07T17:18:43.064Z,77.49
2018-11-07T17:21:11.390Z,77.78
2018-11-07T17:23:39.146Z,78.05
2018-11-07T17:26:08.060Z,78.43
2018-11-07T17:28:36.401Z,78.76
2018-11-07T17:31:05.347Z,78.87
2018-11-07T17:33:33.106Z,79.15
2018-11-07T17:36:02.028Z,79.46
2018-11-07T17:38:29.832Z,79.57
2018-11-07T17:40:58.732Z,79.54
2018-11-07T17:43:27.068Z,79.57
2018-11-07T17:45:54.832Z,79.77
2018-11-07T17:48:23.209Z,79.83
2018-11-07T17:50:51.509Z,79.94
2018-11-07T17:53:20.426Z,80.01
2018-11-07T17:55:49.937Z,80.10
2018-11-07T17:58:18.402Z,80.20
2018-11-07T18:00:46.741Z,80.25
2018-11-07T18:03:14.493Z,80.28
2018-11-07T18:05:43.511Z,80.04
2018-11-07T18:08:11.846Z,80.08
2018-11-07T18:10:40.245Z,80.18
2018-11-07T18:13:08.729Z,80.37
2018-11-07T18:15:37.071Z,80.61
2018-11-07T18:18:04.876Z,80.65
2018-11-07T18:20:33.245Z,80.62
2018-11-07T18:23:02.165Z,80.63
2018-11-07T18:25:30.498Z,80.51
2018-11-07T18:27:58.837Z,80.33
2018-11-07T18:30:27.171Z,80.22
2018-11-07T18:32:55.520Z,79.88
2018-11-07T18:35:23.975Z,79.80
2018-11-07T18:37:52.069Z,79.91
2018-11-07T18:40:20.510Z,79.89
2018-11-07T18:42:48.878Z,79.88
2018-11-07T18:45:16.601Z,79.90
2018-11-07T18:47:45.665Z,79.97
2018-11-07T18:50:14.254Z,79.98
2018-11-07T18:52:42.532Z,80.04
2018-11-07T18:55:10.913Z,79.96
2018-11-07T18:57:39.357Z,80.11
2018-11-07T19:00:07.721Z,80.19
2018-11-07T19:02:36.066Z,80.16
2018-11-07T19:05:04.516Z,80.32
2018-11-07T19:07:32.853Z,80.62
2018-11-07T19:10:02.119Z,80.83
2018-11-07T19:12:30.531Z,80.95
2018-11-07T19:14:58.913Z,81.05
2018-11-07T19:17:27.250Z,81.10
2018-11-07T19:19:55.639Z,81.27
2018-11-07T19:22:23.970Z,81.21
2018-11-07T19:24:51.724Z,81.44
2018-11-07T19:27:20.243Z,81.42
2018-11-07T19:29:48.656Z,81.56
2018-11-07T19:32:17.006Z,81.64
2018-11-07T19:34:45.934Z,81.94
2018-11-07T19:37:14.328Z,82.02
2018-11-07T19:39:42.738Z,82.07
2018-11-07T19:42:11.088Z,82.30
2018-11-07T19:44:38.840Z,82.26
2018-11-07T19:47:07.898Z,82.38
2018-11-07T19:49:36.149Z,82.42
2018-11-07T19:52:04.493Z,82.61
2018-11-07T19:54:32.474Z,82.56
2018-11-07T19:57:00.857Z,82.51
2018-11-07T19:59:29.216Z,82.45
2018-11-07T20:01:58.134Z,82.57
2018-11-07T20:04:26.527Z,82.65
2018-11-07T20:06:54.911Z,82.78
2018-11-07T20:09:23.262Z,82.99
2018-11-07T20:11:51.098Z,83.05
2018-11-07T20:14:20.025Z,83.17
2018-11-07T20:16:48.386Z,83.20
2018-11-07T20:19:16.183Z,83.23
2018-11-07T20:21:45.101Z,82.97
2018-11-07T20:24:12.922Z,83.03
2018-11-07T20:26:41.953Z,82.67
2018-11-07T20:29:09.718Z,82.69
2018-11-07T20:31:38.658Z,82.57
2018-11-07T20:34:06.994Z,82.44
2018-11-07T20:36:34.741Z,82.27
2018-11-07T20:39:03.688Z,82.38
2018-11-07T20:41:32.178Z,82.36
2018-11-07T20:44:00.452Z,82.33
2018-11-07T20:46:28.205Z,82.50
2018-11-07T20:48:57.164Z,82.56
2018-11-07T20:51:25.567Z,82.51
2018-11-07T20:53:53.995Z,82.74
2018-11-07T20:56:21.746Z,82.63
2018-11-07T20:58:50.092Z,82.90
2018-11-07T21:01:18.526Z,83.46
2018-11-07T21:03:47.527Z,83.36
2018-11-07T21:06:15.877Z,83.55
2018-11-07T21:08:44.294Z,83.39
2018-11-07T21:11:12.629Z,83.16
2018-11-07T21:13:40.429Z,83.22
2018-11-07T21:16:09.418Z,83.22
2018-11-07T21:18:37.754Z,83.23
2018-11-07T21:21:06.140Z,83.44
2018-11-07T21:23:34.476Z,83.37
2018-11-07T21:26:02.808Z,83.33
2018-11-07T21:28:31.382Z,83.16
2018-11-07T21:30:59.645Z,83.22
2018-11-07T21:33:27.987Z,83.01
2018-11-07T21:35:55.850Z,83.15
2018-11-07T21:38:24.831Z,83.48
2018-11-07T21:40:53.206Z,84.03
2018-11-07T21:43:22.529Z,84.23
2018-11-07T21:45:49.985Z,84.17
2018-11-07T21:48:18.373Z,84.18
2018-11-07T21:50:46.737Z,84.13
2018-11-07T21:53:15.086Z,84.20
2018-11-07T21:55:43.427Z,84.21
2018-11-07T21:58:11.881Z,84.02
2018-11-07T22:00:39.669Z,83.96
2018-11-07T22:03:11.622Z,84.04
2018-11-07T22:05:40.005Z,83.79
2018-11-07T22:08:08.370Z,83.86
2018-11-07T22:10:36.147Z,84.00
2018-11-07T22:13:05.189Z,83.85
2018-11-07T22:15:33.615Z,83.76
2018-11-07T22:18:01.417Z,83.85
2018-11-07T22:20:29.777Z,84.38
2018-11-07T22:22:58.791Z,84.33
2018-11-07T22:25:27.194Z,84.34
2018-11-07T22:27:54.943Z,84.21
2018-11-07T22:30:23.906Z,84.58
2018-11-07T22:32:51.694Z,84.34
2018-11-07T22:35:21.546Z,84.39
2018-11-07T22:37:49.990Z,84.40
2018-11-07T22:40:18.335Z,84.34
2018-11-07T22:42:46.675Z,84.48
2018-11-07T22:45:15.022Z,84.37
2018-11-07T22:47:43.427Z,84.20
2018-11-07T22:50:11.224Z,84.27
2018-11-07T22:52:40.123Z,84.24
2018-11-07T22:55:07.884Z,84.08
2018-11-07T22:57:36.798Z,83.82
2018-11-07T23:00:05.140Z,84.12
2018-11-07T23:02:33.483Z,83.87
2018-11-07T23:05:01.820Z,84.17
2018-11-07T23:07:30.158Z,84.40
2018-11-07T23:09:58.506Z,84.87
2018-11-07T23:12:26.853Z,85.25
2018-11-07T23:14:55.191Z,85.43
2018-11-07T23:17:23.603Z,85.45
2018-11-07T23:19:51.944Z,86.12
2018-11-07T23:22:20.292Z,86.07
2018-11-07T23:24:48.052Z,86.23
2018-11-07T23:27:16.427Z,86.35
2018-11-07T23:29:44.773Z,86.25
2018-11-07T23:32:13.707Z,86.12
2018-11-07T23:34:41.472Z,86.10
2018-11-07T23:37:10.418Z,86.40
2018-11-07T23:39:38.181Z,86.46
2018-11-07T23:42:07.298Z,86.66
2018-11-07T23:44:35.938Z,86.71
2018-11-07T23:47:04.276Z,86.42
2018-11-07T23:49:32.037Z,85.90
2018-11-07T23:52:00.381Z,85.75
2018-11-07T23:54:29.012Z,85.36
2018-11-07T23:56:57.940Z,85.60
2018-11-07T23:59:25.705Z,85.74
